Time;durP1;ratioP1;P1;durP2;ratioP2;P2;SDS_P1;SDS_P2;PMS_P1;PMS_P2;Temp;Humidity;BMP_temperature;BMP_pressure;BME280_temperature;BME280_humidity;BME280_pressure;Samples;Min_cycle;Max_cycle;Signal;HPM_P1;HPM_P2
2023/06/01 00:01:46;;;;;;;7.90;4.00;;;16.80;62.20;;;;;;5027057;28;20633;-76
2023/06/01 00:04:13;;;;;;;7.33;4.30;;;16.80;62.20;;;;;;5031055;28;20182;-78
2023/06/01 00:06:41;;;;;;;6.70;4.90;;;16.80;62.00;;;;;;5016528;28;20425;-77
2023/06/01 00:09:07;;;;;;;6.60;4.33;;;16.90;61.90;;;;;;5014872;28;20453;-78
2023/06/01 00:11:33;;;;;;;9.00;4.63;;;16.90;61.60;;;;;;5014367;28;20421;-77
2023/06/01 00:13:58;;;;;;;7.50;4.40;;;17.00;61.50;;;;;;5019033;28;20434;-79
2023/06/01 00:16:24;;;;;;;10.77;5.13;;;17.00;61.30;;;;;;5018621;28;20186;-76
2023/06/01 00:18:52;;;;;;;7.40;3.90;;;16.90;61.90;;;;;;5014083;28;20204;-77
2023/06/01 00:21:18;;;;;;;9.70;4.67;;;16.90;62.80;;;;;;5020344;28;20586;-77
2023/06/01 00:23:44;;;;;;;11.10;4.40;;;16.90;63.20;;;;;;5018998;28;20479;-77
2023/06/01 00:26:10;;;;;;;14.50;4.70;;;17.00;63.20;;;;;;5018997;28;20428;-76
2023/06/01 00:28:36;;;;;;;6.17;4.30;;;16.90;62.90;;;;;;5017021;28;20973;-77
2023/06/01 00:31:01;;;;;;;8.23;4.40;;;16.80;62.80;;;;;;5018899;28;21502;-76
2023/06/01 00:33:27;;;;;;;6.23;3.97;;;16.70;62.60;;;;;;5018719;28;20504;-76
2023/06/01 00:35:53;;;;;;;5.80;3.90;;;16.70;62.50;;;;;;5019415;28;20253;-76
2023/06/01 00:38:19;;;;;;;8.03;4.17;;;16.60;62.00;;;;;;5014801;28;20201;-76
2023/06/01 00:40:45;;;;;;;10.67;5.30;;;16.60;62.20;;;;;;5014982;28;20217;-75
2023/06/01 00:43:11;;;;;;;9.03;4.67;;;16.60;61.90;;;;;;5015878;28;20181;-75
2023/06/01 00:45:39;;;;;;;8.50;5.00;;;16.60;61.90;;;;;;5015934;28;20421;-77
2023/06/01 00:48:05;;;;;;;6.17;4.60;;;16.60;61.70;;;;;;5014349;28;20512;-75
2023/06/01 00:50:31;;;;;;;9.23;4.67;;;16.60;61.60;;;;;;5013217;28;20485;-76
2023/06/01 00:52:59;;;;;;;7.50;4.80;;;16.70;62.80;;;;;;5015138;28;20428;-76
2023/06/01 00:55:27;;;;;;;8.00;4.50;;;16.70;63.20;;;;;;5010120;28;20514;-76
2023/06/01 00:57:54;;;;;;;11.10;5.17;;;16.60;63.40;;;;;;5002925;28;20971;-76
2023/06/01 01:00:20;;;;;;;6.03;4.60;;;16.60;63.50;;;;;;5010249;28;20473;-77
2023/06/01 01:02:48;;;;;;;6.50;4.83;;;16.50;63.90;;;;;;5011188;28;20467;-76
2023/06/01 01:05:16;;;;;;;9.20;4.63;;;16.40;64.20;;;;;;5011100;28;20174;-76
2023/06/01 01:07:53;;;;;;;7.53;4.47;;;16.40;64.10;;;;;;5011849;28;20437;-76
2023/06/01 01:10:26;;;;;;;10.70;4.10;;;16.30;63.90;;;;;;5010395;28;20520;-76
2023/06/01 01:13:23;;;;;;;8.37;4.27;;;16.20;64.40;;;;;;5015769;28;20492;-76
2023/06/01 01:16:07;;;;;;;7.53;4.53;;;16.30;63.10;;;;;;5014176;28;20419;-76
2023/06/01 01:18:37;;;;;;;9.17;4.20;;;16.20;63.10;;;;;;5000997;28;20523;-76
2023/06/01 01:21:21;;;;;;;8.93;4.90;;;16.30;62.50;;;;;;5009053;28;20480;-78
2023/06/01 01:24:06;;;;;;;7.60;4.60;;;16.20;62.80;;;;;;5016480;28;20420;-76
2023/06/01 01:26:51;;;;;;;7.17;4.30;;;16.20;62.90;;;;;;5015196;28;20417;-77
2023/06/01 01:29:20;;;;;;;8.97;4.70;;;16.10;64.20;;;;;;5005385;28;20464;-77
2023/06/01 01:31:49;;;;;;;7.97;4.80;;;16.10;65.40;;;;;;5015501;28;20453;-76
2023/06/01 01:34:14;;;;;;;8.70;5.47;;;16.00;65.70;;;;;;5015629;28;20560;-77
2023/06/01 01:36:41;;;;;;;7.60;4.33;;;15.90;65.80;;;;;;5015234;28;20428;-78
2023/06/01 01:39:06;;;;;;;9.90;4.73;;;15.90;66.10;;;;;;5013448;28;20466;-77
2023/06/01 01:41:32;;;;;;;8.97;5.23;;;15.80;66.30;;;;;;5011420;28;20469;-77
2023/06/01 01:43:59;;;;;;;10.27;4.60;;;15.80;66.10;;;;;;5017721;28;20653;-77
2023/06/01 01:46:27;;;;;;;7.93;4.40;;;15.70;66.70;;;;;;5013097;28;20186;-77
2023/06/01 01:49:02;;;;;;;7.10;4.70;;;15.60;66.90;;;;;;5007078;28;20963;-78
2023/06/01 01:51:40;;;;;;;10.03;5.17;;;15.60;66.90;;;;;;5009498;28;20444;-77
2023/06/01 01:54:08;;;;;;;8.23;5.10;;;15.60;67.00;;;;;;5016012;28;20421;-77
2023/06/01 01:56:35;;;;;;;7.40;4.20;;;15.70;66.60;;;;;;5015579;28;20434;-77
2023/06/01 01:59:02;;;;;;;6.77;4.20;;;15.70;66.70;;;;;;5007201;28;20458;-76
2023/06/01 02:01:28;;;;;;;7.80;4.20;;;15.70;66.70;;;;;;5013663;28;20464;-76
2023/06/01 02:04:07;;;;;;;10.70;4.70;;;15.60;67.00;;;;;;5015078;28;20420;-76
2023/06/01 02:06:33;;;;;;;7.97;5.00;;;15.50;67.00;;;;;;5015201;28;20923;-75
2023/06/01 02:09:00;;;;;;;8.10;4.57;;;15.50;67.00;;;;;;5013636;28;20456;-77
2023/06/01 02:11:26;;;;;;;10.60;4.87;;;15.40;67.50;;;;;;5016371;28;20435;-76
2023/06/01 02:13:51;;;;;;;8.00;4.50;;;15.30;68.00;;;;;;5017312;28;20420;-76
2023/06/01 02:16:17;;;;;;;9.53;4.47;;;15.30;68.20;;;;;;5015682;28;20277;-77
2023/06/01 02:18:45;;;;;;;8.67;4.50;;;15.20;68.50;;;;;;5015019;28;20296;-75
2023/06/01 02:21:13;;;;;;;12.47;4.57;;;15.10;68.50;;;;;;5016091;28;20238;-75
2023/06/01 02:23:39;;;;;;;11.40;4.87;;;15.10;68.30;;;;;;5015342;28;20543;-76
2023/06/01 02:26:06;;;;;;;7.50;4.40;;;15.00;68.60;;;;;;5016480;28;20427;-75
2023/06/01 02:28:31;;;;;;;7.60;4.70;;;15.10;68.60;;;;;;5015647;28;20862;-77
2023/06/01 02:30:57;;;;;;;4.77;4.00;;;15.10;68.50;;;;;;5016484;28;20437;-77
2023/06/01 02:33:24;;;;;;;7.70;4.53;;;15.10;68.30;;;;;;5014864;28;20196;-75
2023/06/01 02:35:50;;;;;;;6.60;4.57;;;15.20;68.60;;;;;;5014352;28;20185;-76
2023/06/01 02:38:16;;;;;;;7.37;4.93;;;15.20;68.50;;;;;;5007861;28;20493;-76
2023/06/01 02:40:42;;;;;;;7.10;4.33;;;15.10;68.50;;;;;;5011780;28;20471;-76
2023/06/01 02:43:08;;;;;;;7.83;4.33;;;15.10;68.50;;;;;;5008427;28;20645;-76
2023/06/01 02:45:34;;;;;;;7.80;4.53;;;15.00;68.20;;;;;;5008499;28;20427;-76
2023/06/01 02:47:59;;;;;;;8.47;5.37;;;14.90;68.00;;;;;;5014614;28;20182;-75
2023/06/01 02:50:26;;;;;;;8.20;4.40;;;14.90;68.60;;;;;;5011527;28;20482;-76
2023/06/01 02:52:51;;;;;;;7.97;4.80;;;14.90;68.30;;;;;;5011947;28;20729;-77
2023/06/01 02:55:17;;;;;;;9.90;4.50;;;14.90;68.00;;;;;;5013259;28;20436;-77
2023/06/01 02:57:43;;;;;;;7.80;5.00;;;14.80;68.60;;;;;;5012817;28;20515;-77
2023/06/01 03:00:15;;;;;;;11.83;4.87;;;14.90;69.20;;;;;;5012317;28;20231;-75
2023/06/01 03:02:42;;;;;;;8.50;4.60;;;15.00;68.80;;;;;;5015924;28;20651;-74
2023/06/01 03:05:14;;;;;;;10.03;4.87;;;15.00;68.80;;;;;;5014864;28;20420;-77
2023/06/01 03:07:40;;;;;;;9.57;4.57;;;14.90;69.20;;;;;;5011141;28;20415;-75
2023/06/01 03:10:06;;;;;;;9.40;4.40;;;14.90;69.70;;;;;;5013604;28;20463;-76
2023/06/01 03:12:32;;;;;;;6.93;4.37;;;14.90;69.70;;;;;;5017338;28;20422;-76
2023/06/01 03:14:58;;;;;;;8.40;4.53;;;14.90;69.80;;;;;;5020205;28;20457;-77
2023/06/01 03:17:23;;;;;;;11.50;4.73;;;14.90;69.70;;;;;;5018145;28;20186;-77
2023/06/01 03:19:49;;;;;;;7.67;4.70;;;14.90;69.70;;;;;;5016303;28;20214;-74
2023/06/01 03:22:14;;;;;;;9.47;4.53;;;14.80;69.80;;;;;;5025083;28;20243;-76
2023/06/01 03:24:41;;;;;;;7.57;4.83;;;14.90;69.70;;;;;;5033172;28;20187;-76
2023/06/01 03:27:07;;;;;;;9.63;4.37;;;14.80;69.50;;;;;;5035748;28;20206;-76
2023/06/01 03:29:32;;;;;;;9.33;4.33;;;14.70;69.80;;;;;;5012466;28;20506;-76
2023/06/01 03:31:59;;;;;;;7.10;4.50;;;14.60;69.70;;;;;;5011306;28;20451;-78
2023/06/01 03:34:27;;;;;;;8.33;4.90;;;14.60;69.90;;;;;;5010069;28;20304;-77
2023/06/01 03:36:53;;;;;;;7.40;4.73;;;14.70;69.80;;;;;;5010507;28;20920;-76
2023/06/01 03:39:18;;;;;;;7.50;4.30;;;14.70;69.80;;;;;;5009096;28;20492;-75
2023/06/01 03:41:44;;;;;;;6.03;3.97;;;14.70;69.90;;;;;;5012111;28;20488;-77
2023/06/01 03:44:11;;;;;;;6.63;4.40;;;14.60;69.90;;;;;;5006116;28;20196;-75
2023/06/01 03:46:37;;;;;;;7.67;4.63;;;14.60;70.20;;;;;;5004329;28;20459;-78
2023/06/01 03:49:04;;;;;;;6.60;4.20;;;14.50;70.40;;;;;;5011064;28;20478;-76
2023/06/01 03:51:30;;;;;;;7.60;3.87;;;14.50;70.40;;;;;;5010597;28;20227;-76
2023/06/01 03:53:55;;;;;;;9.67;5.20;;;14.50;70.20;;;;;;5014882;28;20451;-76
2023/06/01 03:56:22;;;;;;;9.37;5.30;;;14.40;70.50;;;;;;5010397;28;20710;-76
2023/06/01 03:58:48;;;;;;;7.83;4.43;;;14.40;70.50;;;;;;5011796;28;20217;-76
2023/06/01 04:01:16;;;;;;;9.00;4.60;;;14.40;70.50;;;;;;5014851;28;20459;-76
2023/06/01 04:03:45;;;;;;;10.43;4.47;;;14.40;70.50;;;;;;5014350;28;20437;-76
2023/06/01 04:06:17;;;;;;;6.77;4.50;;;14.40;70.50;;;;;;5015800;28;20423;-76
2023/06/01 04:08:50;;;;;;;10.03;4.60;;;14.50;70.50;;;;;;5008887;28;20459;-77
2023/06/01 04:11:16;;;;;;;8.37;4.80;;;14.50;70.50;;;;;;5011750;28;20991;-76
2023/06/01 04:13:43;;;;;;;7.23;5.23;;;14.50;70.70;;;;;;5012782;28;20425;-75
2023/06/01 04:16:09;;;;;;;9.73;4.97;;;14.50;70.50;;;;;;5013164;28;20521;-76
2023/06/01 04:18:35;;;;;;;8.60;5.10;;;14.60;70.40;;;;;;5010251;28;20445;-75
2023/06/01 04:21:00;;;;;;;7.80;5.20;;;14.50;70.70;;;;;;5010765;28;20561;-77
2023/06/01 04:23:26;;;;;;;7.60;4.87;;;14.50;70.80;;;;;;5011498;28;20192;-77
2023/06/01 04:25:52;;;;;;;8.20;4.90;;;14.50;70.80;;;;;;5009050;28;20251;-77
2023/06/01 04:28:17;;;;;;;7.10;4.47;;;14.70;70.50;;;;;;5004460;28;20676;-77
2023/06/01 04:30:47;;;;;;;8.33;5.13;;;14.80;70.20;;;;;;5011610;28;20697;-76
2023/06/01 04:33:13;;;;;;;8.80;5.00;;;14.80;70.40;;;;;;5023379;28;20196;-76
2023/06/01 04:35:39;;;;;;;14.97;5.43;;;14.90;70.20;;;;;;5023102;28;20427;-76
2023/06/01 04:38:05;;;;;;;11.80;5.43;;;14.90;69.90;;;;;;5020334;28;20492;-77
2023/06/01 04:40:31;;;;;;;8.87;4.97;;;14.80;70.20;;;;;;5012489;28;20216;-77
2023/06/01 04:42:56;;;;;;;14.97;4.63;;;14.70;70.40;;;;;;5021190;28;20193;-76
2023/06/01 04:45:23;;;;;;;13.77;5.43;;;14.70;70.40;;;;;;5010867;28;20439;-77
2023/06/01 04:47:49;;;;;;;8.90;5.60;;;14.70;70.50;;;;;;5013508;28;20206;-76
2023/06/01 04:50:16;;;;;;;8.53;5.23;;;14.80;70.40;;;;;;5004698;28;20959;-76
2023/06/01 04:52:42;;;;;;;8.00;5.00;;;14.80;70.20;;;;;;5009171;28;20430;-77
2023/06/01 04:55:09;;;;;;;8.33;4.73;;;14.80;70.40;;;;;;5003785;28;20806;-77
2023/06/01 04:57:36;;;;;;;10.40;5.33;;;14.90;70.20;;;;;;5016665;28;20431;-77
2023/06/01 05:00:13;;;;;;;8.83;4.97;;;14.80;70.50;;;;;;5011331;28;20535;-76
2023/06/01 05:02:40;;;;;;;8.87;5.20;;;14.80;70.50;;;;;;5012337;28;20460;-78
2023/06/01 05:05:07;;;;;;;10.03;5.67;;;14.80;70.80;;;;;;5013377;28;20421;-76
2023/06/01 05:07:33;;;;;;;8.50;4.73;;;14.80;70.80;;;;;;5011437;28;20428;-77
2023/06/01 05:10:04;;;;;;;9.93;4.97;;;14.70;70.70;;;;;;5019067;28;20481;-76
2023/06/01 05:12:29;;;;;;;11.77;5.27;;;14.90;70.50;;;;;;5016425;28;20193;-76
2023/06/01 05:14:55;;;;;;;12.40;6.50;;;15.00;69.90;;;;;;5015994;28;20475;-76
2023/06/01 05:17:20;;;;;;;11.57;4.77;;;15.10;69.80;;;;;;5013338;28;20174;-76
2023/06/01 05:19:46;;;;;;;7.53;5.00;;;15.10;69.70;;;;;;5013817;28;20236;-76
2023/06/01 05:22:12;;;;;;;7.20;4.30;;;15.20;69.70;;;;;;5019059;28;20584;-78
2023/06/01 05:24:37;;;;;;;9.53;4.80;;;15.30;69.50;;;;;;5016163;28;20185;-77
2023/06/01 05:27:04;;;;;;;11.67;5.03;;;15.40;68.90;;;;;;5004854;28;20191;-77
2023/06/01 05:29:30;;;;;;;7.53;4.50;;;15.50;68.80;;;;;;5010037;28;20221;-76
2023/06/01 05:31:55;;;;;;;9.13;4.20;;;15.50;68.60;;;;;;5011678;28;20431;-75
2023/06/01 05:34:22;;;;;;;10.73;4.27;;;15.60;67.70;;;;;;5011011;28;20841;-75
2023/06/01 05:36:48;;;;;;;7.90;4.30;;;15.70;66.70;;;;;;5010695;28;20216;-76
2023/06/01 05:39:14;;;;;;;8.70;4.20;;;15.80;67.20;;;;;;5008200;28;20480;-76
2023/06/01 05:41:40;;;;;;;9.90;4.60;;;15.90;67.30;;;;;;5011464;28;20461;-76
2023/06/01 05:44:06;;;;;;;9.87;5.13;;;16.10;66.90;;;;;;5011393;28;20429;-76
2023/06/01 05:46:31;;;;;;;13.70;4.83;;;16.20;66.60;;;;;;5008122;28;20205;-74
2023/06/01 05:48:57;;;;;;;8.77;4.53;;;16.40;66.30;;;;;;5009010;28;20215;-78
2023/06/01 05:51:23;;;;;;;5.83;3.80;;;16.50;65.40;;;;;;5012635;28;20237;-76
2023/06/01 05:53:48;;;;;;;8.20;4.77;;;16.70;64.70;;;;;;5011014;28;20217;-76
2023/06/01 05:56:14;;;;;;;6.03;4.33;;;16.80;63.90;;;;;;5006889;28;20260;-76
2023/06/01 05:58:39;;;;;;;7.93;4.90;;;17.00;63.50;;;;;;5005043;28;20214;-77
2023/06/01 06:01:05;;;;;;;11.57;5.60;;;17.10;63.20;;;;;;5013730;28;20209;-76
2023/06/01 06:03:31;;;;;;;8.10;4.67;;;17.20;62.80;;;;;;5014674;28;20720;-77
2023/06/01 06:05:56;;;;;;;9.30;4.80;;;17.30;62.50;;;;;;5016621;28;20186;-76
2023/06/01 06:08:22;;;;;;;7.10;4.43;;;17.40;62.60;;;;;;5013363;28;20213;-76
2023/06/01 06:10:48;;;;;;;8.23;4.23;;;17.50;62.60;;;;;;5015730;28;20216;-77
2023/06/01 06:13:14;;;;;;;8.40;4.27;;;17.60;62.30;;;;;;5015234;28;20185;-75
2023/06/01 06:15:40;;;;;;;14.87;4.97;;;17.70;61.90;;;;;;5015386;28;20192;-76
2023/06/01 06:18:05;;;;;;;10.70;4.90;;;17.80;61.30;;;;;;5014157;28;20509;-77
2023/06/01 06:20:31;;;;;;;9.30;4.97;;;17.80;61.60;;;;;;5012553;28;20289;-76
2023/06/01 06:22:57;;;;;;;7.67;4.20;;;17.70;61.60;;;;;;5014220;28;20306;-76
2023/06/01 06:25:22;;;;;;;12.03;4.73;;;17.80;61.50;;;;;;5012822;28;20178;-75
2023/06/01 06:27:48;;;;;;;8.77;4.77;;;17.90;60.90;;;;;;5011044;28;20207;-76
2023/06/01 06:30:14;;;;;;;9.10;5.43;;;18.10;60.10;;;;;;5009936;28;20683;-78
2023/06/01 06:32:40;;;;;;;7.27;4.30;;;18.20;59.60;;;;;;5006860;28;20712;-77
2023/06/01 06:35:06;;;;;;;8.43;4.53;;;18.10;59.60;;;;;;5028119;28;20427;-77
2023/06/01 06:37:32;;;;;;;12.00;4.70;;;18.00;59.70;;;;;;5032355;28;20647;-74
2023/06/01 06:39:58;;;;;;;10.67;4.60;;;18.00;59.20;;;;;;5021013;28;20453;-75
2023/06/01 06:42:25;;;;;;;16.33;5.70;;;18.10;59.30;;;;;;5026161;28;20188;-76
2023/06/01 06:44:51;;;;;;;9.17;5.50;;;17.90;59.20;;;;;;5021776;28;20459;-77
2023/06/01 06:47:19;;;;;;;11.00;5.17;;;17.80;60.40;;;;;;5015233;28;20459;-76
2023/06/01 06:49:45;;;;;;;16.40;5.83;;;17.70;60.10;;;;;;5023875;28;20268;-76
2023/06/01 06:52:10;;;;;;;12.17;5.87;;;17.70;60.10;;;;;;5025214;28;20454;-77
2023/06/01 06:54:40;;;;;;;9.83;4.30;;;17.80;60.30;;;;;;5019699;28;20214;-76
2023/06/01 06:57:06;;;;;;;16.30;6.27;;;18.00;60.40;;;;;;5014774;28;20180;-77
2023/06/01 06:59:31;;;;;;;14.13;5.93;;;18.10;60.40;;;;;;5017585;28;20487;-77
2023/06/01 07:01:57;;;;;;;12.40;4.70;;;18.10;60.30;;;;;;5021047;28;20466;-75
2023/06/01 07:04:22;;;;;;;9.67;4.73;;;18.20;60.40;;;;;;5022653;28;20181;-77
2023/06/01 07:06:48;;;;;;;6.20;4.07;;;18.40;60.00;;;;;;5021379;28;20258;-74
2023/06/01 07:09:13;;;;;;;10.47;5.50;;;18.60;59.60;;;;;;5021734;28;20286;-75
2023/06/01 07:11:42;;;;;;;9.10;5.73;;;18.70;58.90;;;;;;5025397;28;20261;-77
2023/06/01 07:14:08;;;;;;;9.70;5.13;;;18.80;57.80;;;;;;5026131;28;20600;-76
2023/06/01 07:16:34;;;;;;;8.60;4.77;;;18.80;57.60;;;;;;5026808;28;20541;-78
2023/06/01 07:18:59;;;;;;;11.73;5.00;;;18.80;57.80;;;;;;5022368;28;20217;-77
2023/06/01 07:21:25;;;;;;;9.10;5.10;;;18.80;58.20;;;;;;5023385;28;20273;-76
2023/06/01 07:23:50;;;;;;;14.60;5.40;;;18.80;58.80;;;;;;5020349;28;20213;-76
2023/06/01 07:26:16;;;;;;;11.40;5.37;;;19.00;58.80;;;;;;5025474;28;20301;-77
2023/06/01 07:28:42;;;;;;;11.93;5.40;;;19.10;58.50;;;;;;5027790;28;20202;-76
2023/06/01 07:31:08;;;;;;;15.93;5.40;;;19.40;57.60;;;;;;5025310;28;20186;-77
2023/06/01 07:33:35;;;;;;;13.30;5.60;;;19.30;57.00;;;;;;5024726;28;20642;-75
2023/06/01 07:36:01;;;;;;;11.80;6.23;;;19.20;57.60;;;;;;5027612;28;20190;-76
2023/06/01 07:38:27;;;;;;;13.90;5.50;;;19.10;58.10;;;;;;5028344;28;20491;-76
2023/06/01 07:40:52;;;;;;;13.10;5.90;;;19.00;58.50;;;;;;5027052;28;20480;-77
2023/06/01 07:43:18;;;;;;;9.60;5.90;;;19.20;58.40;;;;;;5024500;28;20182;-77
2023/06/01 07:45:43;;;;;;;10.73;5.30;;;19.40;58.20;;;;;;5022587;28;20180;-78
2023/06/01 07:48:09;;;;;;;9.23;5.03;;;19.20;58.40;;;;;;5026375;28;20536;-77
2023/06/01 07:50:36;;;;;;;9.30;4.60;;;19.40;58.40;;;;;;5022867;28;20226;-76
2023/06/01 07:53:02;;;;;;;11.57;5.50;;;19.50;58.00;;;;;;5024319;28;20206;-77
2023/06/01 07:55:28;;;;;;;17.13;5.40;;;19.60;57.30;;;;;;5024506;28;20438;-77
2023/06/01 07:57:54;;;;;;;10.00;5.87;;;19.70;57.40;;;;;;5010759;28;20524;-76
2023/06/01 08:00:19;;;;;;;7.57;4.77;;;19.90;56.80;;;;;;5021719;28;20296;-77
2023/06/01 08:02:46;;;;;;;14.43;5.77;;;19.90;57.20;;;;;;5019789;28;20640;-77
2023/06/01 08:05:11;;;;;;;12.60;5.90;;;20.10;56.50;;;;;;5018943;28;20260;-77
2023/06/01 08:07:38;;;;;;;10.70;5.60;;;20.10;56.50;;;;;;5019764;28;20454;-77
2023/06/01 08:10:05;;;;;;;9.23;5.43;;;20.00;56.20;;;;;;5019643;28;20223;-76
2023/06/01 08:12:31;;;;;;;11.57;5.53;;;20.00;56.40;;;;;;5023527;28;20465;-76
2023/06/01 08:14:58;;;;;;;10.43;5.10;;;20.30;55.70;;;;;;5021627;28;20775;-77
2023/06/01 08:17:24;;;;;;;16.63;7.13;;;20.50;54.40;;;;;;5018969;28;20441;-76
2023/06/01 08:19:49;;;;;;;11.27;4.90;;;20.50;54.50;;;;;;5019733;28;20554;-76
2023/06/01 08:22:16;;;;;;;47.33;11.20;;;20.60;54.50;;;;;;5023225;28;20494;-77
2023/06/01 08:24:43;;;;;;;10.40;6.50;;;20.80;54.10;;;;;;5022478;28;20185;-77
2023/06/01 08:27:19;;;;;;;12.33;6.20;;;21.00;53.40;;;;;;5012372;28;20424;-76
2023/06/01 08:29:48;;;;;;;8.80;6.00;;;20.90;53.20;;;;;;5012420;28;20464;-76
2023/06/01 08:32:14;;;;;;;9.80;5.87;;;20.90;53.20;;;;;;5016949;28;20436;-77
2023/06/01 08:34:40;;;;;;;14.03;7.10;;;21.00;52.90;;;;;;5010380;28;20428;-76
2023/06/01 08:37:05;;;;;;;13.30;6.47;;;21.00;52.80;;;;;;5012990;28;20432;-75
2023/06/01 08:39:31;;;;;;;11.20;5.80;;;21.00;53.30;;;;;;5002725;28;20212;-76
2023/06/01 08:42:16;;;;;;;12.80;5.57;;;20.90;53.20;;;;;;5016421;28;20224;-76
2023/06/01 08:44:42;;;;;;;9.33;5.83;;;21.00;53.40;;;;;;5010753;28;20203;-76
2023/06/01 08:47:09;;;;;;;16.07;6.33;;;21.20;53.40;;;;;;5011993;28;20936;-76
2023/06/01 08:49:36;;;;;;;12.00;6.40;;;21.40;52.90;;;;;;5012727;28;20460;-76
2023/06/01 08:52:10;;;;;;;10.70;6.10;;;21.40;52.50;;;;;;5015411;28;20442;-76
2023/06/01 08:54:37;;;;;;;12.00;6.70;;;21.40;52.50;;;;;;5012298;28;20962;-76
2023/06/01 08:57:10;;;;;;;9.87;5.83;;;21.30;52.90;;;;;;5010197;28;20432;-77
2023/06/01 08:59:36;;;;;;;14.70;6.57;;;21.40;52.50;;;;;;5011075;28;20475;-75
2023/06/01 09:02:02;;;;;;;15.77;6.67;;;21.20;52.90;;;;;;5008281;28;20583;-75
2023/06/01 09:04:30;;;;;;;11.13;6.03;;;21.20;52.60;;;;;;5015560;28;20428;-75
2023/06/01 09:06:56;;;;;;;11.33;6.40;;;21.30;52.90;;;;;;5009949;28;20192;-77
2023/06/01 09:09:22;;;;;;;11.33;5.67;;;21.50;52.20;;;;;;5010106;28;20464;-76
2023/06/01 09:11:47;;;;;;;11.20;6.40;;;21.60;52.20;;;;;;5014584;28;20924;-75
2023/06/01 09:14:21;;;;;;;14.77;6.20;;;21.70;51.80;;;;;;5016187;28;20249;-75
2023/06/01 09:16:47;;;;;;;9.83;6.40;;;21.80;51.60;;;;;;5015938;28;20327;-76
2023/06/01 09:19:13;;;;;;;11.77;6.83;;;21.90;51.20;;;;;;5015106;28;21034;-78
2023/06/01 09:21:39;;;;;;;13.60;6.03;;;22.10;50.90;;;;;;5016202;28;20574;-76
2023/06/01 09:24:24;;;;;;;10.57;6.07;;;22.30;50.60;;;;;;5015523;28;20450;-75
2023/06/01 09:26:51;;;;;;;8.67;5.60;;;22.50;50.20;;;;;;5015171;28;20437;-76
2023/06/01 09:29:17;;;;;;;10.17;6.03;;;22.60;49.80;;;;;;5013295;28;20521;-76
2023/06/01 09:31:47;;;;;;;10.17;6.63;;;22.60;49.50;;;;;;5014972;28;20430;-75
2023/06/01 09:34:18;;;;;;;11.30;6.63;;;22.50;50.10;;;;;;5017910;28;20507;-77
2023/06/01 09:36:48;;;;;;;9.83;6.17;;;22.40;50.30;;;;;;5018202;28;20435;-77
2023/06/01 09:39:16;;;;;;;11.33;6.53;;;22.50;50.70;;;;;;5013065;28;20491;-76
2023/06/01 09:41:49;;;;;;;14.13;6.47;;;22.50;51.20;;;;;;5012889;28;20473;-76
2023/06/01 09:44:35;;;;;;;10.77;6.70;;;22.60;50.60;;;;;;5019596;28;20447;-76
2023/06/01 09:47:01;;;;;;;9.87;6.90;;;22.60;50.60;;;;;;5013685;28;20510;-76
2023/06/01 09:49:29;;;;;;;12.53;6.67;;;22.80;50.10;;;;;;5017921;28;20555;-76
2023/06/01 09:52:03;;;;;;;8.97;6.20;;;23.00;50.20;;;;;;5020103;28;20497;-77
2023/06/01 09:54:35;;;;;;;14.37;5.70;;;23.20;49.50;;;;;;5012676;28;20984;-77
2023/06/01 09:57:03;;;;;;;11.53;6.70;;;23.30;49.40;;;;;;5014375;28;20424;-78
2023/06/01 09:59:30;;;;;;;14.23;6.83;;;23.20;49.40;;;;;;5013483;28;20556;-78
2023/06/01 10:01:57;;;;;;;12.10;6.33;;;23.20;49.10;;;;;;5013704;28;20479;-77
2023/06/01 10:04:28;;;;;;;10.93;6.63;;;23.30;49.70;;;;;;5015879;28;20516;-76
2023/06/01 10:06:55;;;;;;;13.00;7.37;;;23.40;49.50;;;;;;5016141;28;20430;-77
2023/06/01 10:09:24;;;;;;;19.03;7.00;;;23.80;48.30;;;;;;5016905;28;20492;-77
2023/06/01 10:11:53;;;;;;;8.63;5.80;;;24.00;48.70;;;;;;5025539;28;20445;-76
2023/06/01 10:14:20;;;;;;;12.00;7.67;;;24.10;47.90;;;;;;5015801;28;20513;-76
2023/06/01 10:16:52;;;;;;;9.53;6.00;;;23.90;48.10;;;;;;5011934;28;20526;-76
2023/06/01 10:19:21;;;;;;;9.97;6.10;;;24.30;48.10;;;;;;5008678;28;20473;-76
2023/06/01 10:21:47;;;;;;;12.07;6.73;;;25.00;46.30;;;;;;5012628;28;20482;-77
2023/06/01 10:24:16;;;;;;;12.07;6.53;;;25.10;45.30;;;;;;5010548;28;20891;-77
2023/06/01 10:26:56;;;;;;;12.90;6.67;;;24.60;46.30;;;;;;5022694;28;20490;-76
2023/06/01 10:29:24;;;;;;;10.53;7.47;;;24.70;46.30;;;;;;5017235;28;20473;-76
2023/06/01 10:31:51;;;;;;;8.57;5.80;;;24.90;44.70;;;;;;5012869;28;20432;-76
2023/06/01 10:34:45;;;;;;;10.57;6.10;;;25.10;44.30;;;;;;5012870;28;20473;-76
2023/06/01 10:37:12;;;;;;;13.97;9.27;;;25.40;43.70;;;;;;5005547;28;20425;-77
2023/06/01 10:39:38;;;;;;;9.77;6.00;;;25.90;41.90;;;;;;5003912;28;20878;-75
2023/06/01 10:42:13;;;;;;;9.23;6.20;;;26.10;41.00;;;;;;5012021;28;20508;-76
2023/06/01 10:44:41;;;;;;;10.97;6.80;;;26.00;41.20;;;;;;5002751;28;20190;-76
2023/06/01 10:47:44;;;;;;;13.63;7.10;;;25.80;42.30;;;;;;5010269;28;20428;-77
2023/06/01 10:50:10;;;;;;;10.27;6.20;;;24.70;43.90;;;;;;5011027;28;20462;-76
2023/06/01 10:52:38;;;;;;;9.37;5.90;;;24.30;42.80;;;;;;5009245;28;20464;-77
2023/06/01 10:55:06;;;;;;;11.10;6.87;;;24.30;43.80;;;;;;5012679;28;20891;-77
2023/06/01 10:57:45;;;;;;;9.43;6.60;;;24.40;43.90;;;;;;5011636;28;20427;-77
2023/06/01 11:00:22;;;;;;;13.87;7.27;;;24.40;44.50;;;;;;5009204;28;20464;-76
2023/06/01 11:02:59;;;;;;;14.40;6.20;;;24.70;43.10;;;;;;5010362;28;20470;-76
2023/06/01 11:05:50;;;;;;;17.07;6.57;;;24.40;43.70;;;;;;5008394;28;21034;-77
2023/06/01 11:08:22;;;;;;;10.07;6.20;;;24.50;43.40;;;;;;5011405;28;20435;-76
2023/06/01 11:10:50;;;;;;;13.57;6.67;;;25.20;43.40;;;;;;5008832;28;20473;-77
2023/06/01 11:13:21;;;;;;;20.90;7.20;;;25.50;43.00;;;;;;5011194;28;20416;-76
2023/06/01 11:18:44;;;;;;;10.23;6.70;;;26.20;40.80;;;;;;5002721;28;20425;-77
2023/06/01 11:21:18;;;;;;;10.57;6.47;;;26.50;40.30;;;;;;5008016;28;20471;-77
2023/06/01 11:23:45;;;;;;;10.53;6.20;;;25.90;41.10;;;;;;5007313;28;20429;-75
2023/06/01 11:26:13;;;;;;;12.60;6.47;;;25.40;42.70;;;;;;5014164;28;20434;-76
2023/06/01 11:28:39;;;;;;;9.17;6.50;;;25.20;42.70;;;;;;5006917;28;20477;-76
2023/06/01 11:31:10;;;;;;;11.23;6.27;;;25.50;41.90;;;;;;5011240;28;20998;-76
2023/06/01 11:33:39;;;;;;;9.73;5.83;;;25.90;41.90;;;;;;5010665;28;20201;-76
2023/06/01 11:36:05;;;;;;;9.93;5.80;;;26.50;41.20;;;;;;5005497;28;20427;-77
2023/06/01 11:38:43;;;;;;;10.10;5.53;;;27.20;38.20;;;;;;5026319;28;20482;-75
2023/06/01 11:41:10;;;;;;;11.80;6.70;;;27.20;36.80;;;;;;5000809;28;20947;-75
2023/06/01 11:43:35;;;;;;;8.40;5.50;;;27.30;35.50;;;;;;5008445;28;20433;-76
2023/06/01 11:46:11;;;;;;;9.93;6.37;;;27.30;35.50;;;;;;5009285;28;20428;-75
2023/06/01 11:48:37;;;;;;;7.17;5.30;;;27.00;36.30;;;;;;5007050;28;20205;-76
2023/06/01 11:51:04;;;;;;;10.57;6.23;;;27.20;37.00;;;;;;5009501;28;20448;-76
2023/06/01 11:53:31;;;;;;;9.43;6.77;;;27.30;38.00;;;;;;5010216;28;20201;-76
2023/06/01 11:55:58;;;;;;;8.10;6.40;;;27.00;37.90;;;;;;5009407;28;20520;-76
2023/06/01 11:58:25;;;;;;;8.60;5.93;;;26.60;39.60;;;;;;5007803;28;20429;-76
2023/06/01 12:00:52;;;;;;;11.50;6.80;;;27.20;38.60;;;;;;5006355;28;20480;-76
2023/06/01 12:03:18;;;;;;;11.40;6.80;;;26.90;38.60;;;;;;5009492;28;20432;-77
2023/06/01 12:05:48;;;;;;;12.03;6.83;;;25.70;40.20;;;;;;5007137;28;20413;-77
2023/06/01 12:08:20;;;;;;;10.10;5.80;;;25.30;40.00;;;;;;5010433;28;20200;-77
2023/06/01 12:10:47;;;;;;;12.30;6.67;;;25.50;39.20;;;;;;5006438;28;20450;-77
2023/06/01 12:13:14;;;;;;;11.10;6.43;;;25.70;39.00;;;;;;5011431;28;20582;-76
2023/06/01 12:15:40;;;;;;;8.37;5.93;;;26.30;38.40;;;;;;5008088;28;20433;-76
2023/06/01 12:18:05;;;;;;;10.17;6.20;;;26.80;37.40;;;;;;5009463;28;20891;-76
2023/06/01 12:20:35;;;;;;;11.47;6.20;;;26.60;36.00;;;;;;5006904;28;20210;-76
2023/06/01 12:23:22;;;;;;;10.30;6.30;;;27.00;35.30;;;;;;5007396;28;20437;-75
2023/06/01 12:25:52;;;;;;;10.53;6.57;;;26.20;37.00;;;;;;5010268;28;20429;-77
2023/06/01 12:28:18;;;;;;;7.83;6.00;;;27.30;35.60;;;;;;5007808;28;20512;-76
2023/06/01 12:30:45;;;;;;;7.70;5.90;;;27.50;33.70;;;;;;5005513;28;20469;-77
2023/06/01 12:33:35;;;;;;;8.30;5.80;;;27.20;33.30;;;;;;5006986;28;20432;-76
2023/06/01 12:36:02;;;;;;;8.27;5.93;;;27.20;33.30;;;;;;5009785;28;20424;-77
2023/06/01 12:38:27;;;;;;;10.43;6.53;;;27.60;35.60;;;;;;5010007;28;20425;-75
2023/06/01 12:41:09;;;;;;;9.50;6.23;;;27.70;35.50;;;;;;5008592;28;20468;-77
2023/06/01 12:43:35;;;;;;;9.90;6.07;;;28.20;34.50;;;;;;5010455;28;20186;-77
2023/06/01 12:46:03;;;;;;;11.57;6.10;;;27.80;34.10;;;;;;5009705;28;20426;-77
2023/06/01 12:48:36;;;;;;;9.47;6.00;;;28.10;34.00;;;;;;5009546;28;20892;-75
2023/06/01 12:51:02;;;;;;;8.47;5.90;;;28.40;33.30;;;;;;4999888;28;20532;-76